Time;durP1;ratioP1;P1;durP2;ratioP2;P2;SDS_P1;SDS_P2;PMS_P1;PMS_P2;Temp;Humidity;BMP_temperature;BMP_pressure;BME280_temperature;BME280_humidity;BME280_pressure;Samples;Min_cycle;Max_cycle;Signal;HPM_P1;HPM_P2
2022/06/21 00:00:16;;;;;;;;;;;;;;;14.77;62.14;101667.63;5062836;28;20040;-65
2022/06/21 00:02:43;;;;;;;10.40;5.20;;;;;;;14.70;63.96;101662.19;5070021;28;19909;-64
2022/06/21 00:05:22;;;;;;;9.38;5.43;;;;;;;14.65;63.56;101669.97;5068938;28;20107;-64
2022/06/21 00:07:47;;;;;;;;;;;;;;;14.73;62.24;101678.00;5069610;28;20023;-65
2022/06/21 00:10:17;;;;;;;7.97;5.23;;;;;;;14.63;63.85;101674.31;5070447;28;19908;-64
2022/06/21 00:12:42;;;;;;;;;;;;;;;14.67;62.72;101668.28;5064135;28;20297;-64
2022/06/21 00:15:08;;;;;;;9.87;5.53;;;;;;;14.54;64.25;101666.22;5060834;28;19909;-64
2022/06/21 00:17:34;;;;;;;8.93;5.45;;;;;;;14.46;64.44;101665.19;5069908;28;20270;-64
2022/06/21 00:19:59;;;;;;;11.48;5.65;;;;;;;14.42;64.83;101673.00;5070197;28;20025;-64
2022/06/21 00:22:24;;;;;;;10.50;6.05;;;;;;;14.37;64.86;101665.88;5069017;28;20021;-64
2022/06/21 00:24:51;;;;;;;9.38;5.70;;;;;;;14.34;64.71;101665.78;5057868;28;20113;-65
2022/06/21 00:27:19;;;;;;;11.65;6.57;;;;;;;14.34;64.82;101671.94;5069822;28;20399;-65
2022/06/21 00:29:45;;;;;;;7.93;5.63;;;;;;;14.29;64.88;101670.94;5068553;28;20051;-64
2022/06/21 00:32:16;;;;;;;8.88;5.68;;;;;;;14.22;64.71;101669.03;5069716;28;20109;-64
2022/06/21 00:34:43;;;;;;;9.45;5.72;;;;;;;14.17;65.09;101665.47;5061014;28;20096;-64
2022/06/21 00:37:14;;;;;;;10.23;6.05;;;;;;;14.07;65.25;101662.59;5057173;28;20044;-64
2022/06/21 00:39:39;;;;;;;10.70;5.90;;;;;;;14.06;64.87;101665.19;5059181;28;20391;-64
2022/06/21 00:42:19;;;;;;;10.27;5.93;;;;;;;13.97;65.59;101671.13;5068449;28;20020;-64
2022/06/21 00:44:53;;;;;;;11.48;6.20;;;;;;;13.90;66.26;101670.13;5070041;28;20024;-65
2022/06/21 00:47:25;;;;;;;9.43;6.10;;;;;;;13.89;66.30;101664.84;5065149;28;20214;-64
2022/06/21 00:49:56;;;;;;;8.00;5.65;;;;;;;13.81;66.70;101663.75;5069892;28;20033;-66
2022/06/21 00:52:48;;;;;;;9.57;5.97;;;;;;;13.77;66.80;101659.31;5068226;28;20017;-64
2022/06/21 00:55:35;;;;;;;11.35;6.70;;;;;;;13.76;66.57;101660.13;5065124;28;20272;-65
2022/06/21 00:58:00;;;;;;;9.57;5.93;;;;;;;13.76;66.73;101654.91;5069624;28;20028;-65
2022/06/21 01:00:32;;;;;;;10.13;6.03;;;;;;;13.70;66.91;101653.94;5069579;28;20025;-65
2022/06/21 01:03:02;;;;;;;10.93;5.70;;;;;;;13.64;66.62;101653.75;5061590;28;20029;-65
2022/06/21 01:05:31;;;;;;;8.75;5.70;;;;;;;13.61;66.45;101651.06;5069608;28;20039;-65
2022/06/21 01:07:57;;;;;;;9.23;5.78;;;;;;;13.57;66.49;101644.00;5064035;28;20096;-65
2022/06/21 01:10:26;;;;;;;7.55;5.40;;;;;;;13.56;66.75;101639.63;5061497;28;20052;-64
2022/06/21 01:12:56;;;;;;;9.32;5.82;;;;;;;13.54;67.15;101633.44;5061237;28;20032;-64
2022/06/21 01:15:26;;;;;;;9.27;6.30;;;;;;;13.51;67.21;101628.13;5069457;28;20044;-64
2022/06/21 01:17:57;;;;;;;11.02;6.65;;;;;;;13.47;67.54;101628.91;5059019;28;20652;-65
2022/06/21 01:20:25;;;;;;;10.60;6.80;;;;;;;13.44;67.03;101610.50;5059226;28;20036;-64
2022/06/21 01:23:30;;;;;;;8.57;5.80;;;;;;;13.44;66.12;101620.97;5069300;28;20032;-64
2022/06/21 01:26:12;;;;;;;8.88;5.85;;;;;;;13.38;65.09;101620.00;5069707;28;20086;-64
2022/06/21 01:28:38;;;;;;;9.85;6.13;;;;;;;13.37;65.91;101630.44;5069294;28;20093;-65
2022/06/21 01:31:05;;;;;;;10.45;6.63;;;;;;;13.37;66.75;101630.44;5068144;28;20170;-64
2022/06/21 01:33:37;;;;;;;10.07;6.25;;;;;;;13.36;66.95;101618.19;5055823;28;20025;-64
2022/06/21 01:36:09;;;;;;;11.00;6.22;;;;;;;13.32;67.36;101619.78;5064953;28;20127;-65
2022/06/21 01:38:50;;;;;;;10.40;6.43;;;;;;;13.32;67.65;101619.78;5072718;28;20495;-64
2022/06/21 01:41:21;;;;;;;10.73;6.60;;;;;;;13.28;67.44;101609.22;5073039;28;20103;-64
2022/06/21 01:43:50;;;;;;;9.07;6.38;;;;;;;13.22;67.54;101610.84;5072978;28;20242;-64
2022/06/21 01:46:22;;;;;;;12.02;7.05;;;;;;;13.19;67.78;101615.09;5072681;28;20078;-65
2022/06/21 01:48:51;;;;;;;11.02;6.68;;;;;;;13.17;66.94;101615.06;5056027;28;20064;-65
2022/06/21 01:51:25;;;;;;;9.18;6.53;;;;;;;13.14;66.83;101630.69;5066656;28;20028;-65
2022/06/21 01:53:52;;;;;;;11.00;6.57;;;;;;;13.12;67.47;101621.03;5072514;28;20422;-66
2022/06/21 01:56:21;;;;;;;11.10;6.88;;;;;;;13.11;67.74;101619.28;5072319;28;20012;-66
2022/06/21 01:58:52;;;;;;;;;;;;;;;13.17;66.03;101614.19;5073103;28;20064;-64
2022/06/21 02:01:27;;;;;;;10.75;7.18;;;;;;;13.07;67.19;101614.81;5072080;28;19962;-65
2022/06/21 02:03:56;;;;;;;9.93;6.07;;;;;;;12.99;67.61;101606.75;5069189;28;20036;-65
2022/06/21 02:06:24;;;;;;;12.05;6.65;;;;;;;12.92;68.04;101610.94;5067663;28;20488;-64
2022/06/21 02:09:01;;;;;;;12.50;7.80;;;;;;;12.91;68.25;101622.25;5072530;28;20024;-64
2022/06/21 02:12:01;;;;;;;12.10;7.18;;;;;;;12.91;67.43;101611.78;5070861;28;20143;-64
2022/06/21 02:14:29;;;;;;;13.13;7.18;;;;;;;12.86;68.56;101608.13;5072136;28;20040;-64
2022/06/21 02:17:06;;;;;;;11.10;7.00;;;;;;;12.85;68.65;101606.41;5072512;28;20016;-64
2022/06/21 02:19:43;;;;;;;12.07;7.53;;;;;;;12.81;69.14;101601.91;5053867;28;20055;-65
2022/06/21 02:22:18;;;;;;;12.77;7.40;;;;;;;12.78;69.49;101600.09;5053814;28;20056;-65
2022/06/21 02:24:44;;;;;;;10.85;6.93;;;;;;;12.72;69.72;101591.22;5070665;28;20103;-64
2022/06/21 02:27:12;;;;;;;11.57;7.03;;;;;;;12.71;69.30;101582.47;5072241;28;20494;-65
2022/06/21 02:29:37;;;;;;;12.02;7.35;;;;;;;12.70;68.88;101586.84;5072130;28;20099;-64
2022/06/21 02:32:24;;;;;;;12.15;7.05;;;;;;;12.68;69.16;101578.03;5072046;28;20020;-66
2022/06/21 02:34:54;;;;;;;12.27;6.88;;;;;;;12.67;69.21;101571.06;5050704;28;20118;-65
2022/06/21 02:37:20;;;;;;;13.45;7.43;;;;;;;12.60;69.19;101569.13;5065627;28;20033;-65
2022/06/21 02:39:46;;;;;;;10.90;7.32;;;;;;;12.57;69.18;101566.44;5071725;28;20027;-64
2022/06/21 02:42:22;;;;;;;11.30;7.47;;;;;;;12.52;69.20;101565.41;5071582;28;20031;-65
2022/06/21 02:44:52;;;;;;;10.80;7.30;;;;;;;12.46;69.69;101566.13;5070808;28;20107;-65
2022/06/21 02:47:24;;;;;;;10.52;7.18;;;;;;;12.43;70.10;101567.78;5071436;28;20086;-65
2022/06/21 02:49:59;;;;;;;11.23;7.10;;;;;;;12.40;69.98;101563.34;5059772;28;20472;-64
2022/06/21 02:52:30;;;;;;;13.30;7.93;;;;;;;12.31;71.40;101571.81;5071224;28;20116;-66
2022/06/21 02:55:04;;;;;;;10.23;7.60;;;;;;;12.30;70.67;101585.72;5071247;28;20097;-64
2022/06/21 02:57:40;;;;;;;13.52;7.90;;;;;;;12.25;71.17;101586.44;5071313;28;20028;-64
2022/06/21 03:00:14;;;;;;;16.00;8.35;;;;;;;12.22;71.02;101594.19;5071348;28;20025;-64
2022/06/21 03:02:39;;;;;;;11.77;8.18;;;;;;;12.21;71.50;101600.25;5065713;28;20028;-64
2022/06/21 03:05:11;;;;;;;13.02;8.07;;;;;;;12.21;71.47;101598.53;5063133;28;20396;-65
2022/06/21 03:07:39;;;;;;;14.43;7.95;;;;;;;12.23;71.32;101599.47;5063133;28;20142;-65
2022/06/21 03:10:16;;;;;;;11.55;8.05;;;;;;;12.25;71.23;101594.28;5071372;28;20094;-65
2022/06/21 03:12:42;;;;;;;10.25;7.85;;;;;;;12.22;71.38;101584.63;5071183;28;20114;-65
2022/06/21 03:15:10;;;;;;;13.27;7.95;;;;;;;12.18;70.40;101585.41;5071265;28;20115;-65
2022/06/21 03:17:48;;;;;;;13.88;8.00;;;;;;;12.13;69.74;101597.41;5063843;28;20036;-59
2022/06/21 03:20:17;;;;;;;11.07;7.50;;;;;;;12.10;69.79;101598.22;5063986;28;20032;-59
2022/06/21 03:22:42;;;;;;;12.10;8.10;;;;;;;12.06;69.72;101585.03;5070959;28;20483;-59
2022/06/21 03:25:19;;;;;;;12.20;8.00;;;;;;;12.03;70.30;101582.31;5070849;28;20131;-59
2022/06/21 03:27:54;;;;;;;12.20;8.18;;;;;;;12.02;70.46;101591.00;5062689;28;20115;-59
2022/06/21 03:30:25;;;;;;;14.70;8.52;;;;;;;11.98;70.52;101590.91;5056767;28;20033;-59
2022/06/21 03:32:54;;;;;;;11.52;8.10;;;;;;;11.98;70.24;101596.13;5070627;28;20092;-59
2022/06/21 03:35:19;;;;;;;10.98;7.30;;;;;;;12.00;69.64;101596.16;5056953;28;20028;-59
2022/06/21 03:37:46;;;;;;;11.52;7.97;;;;;;;11.96;69.97;101576.91;5070731;28;20047;-59
2022/06/21 03:43:10;;;;;;;12.15;8.27;;;;;;;11.89;70.43;101567.09;5061274;28;20134;-59
2022/06/21 03:45:40;;;;;;;12.20;8.43;;;;;;;11.84;70.99;101558.22;5070070;28;20439;-59
2022/06/21 03:48:18;;;;;;;12.07;7.75;;;;;;;11.77;70.29;101562.38;5070359;28;20139;-64
2022/06/21 03:50:49;;;;;;;10.93;8.00;;;;;;;11.65;70.91;101564.63;5070475;28;20024;-64
2022/06/21 03:53:28;;;;;;;15.02;8.40;;;;;;;11.63;71.24;101564.56;5070123;28;20029;-64
2022/06/21 03:56:13;;;;;;;14.77;8.60;;;;;;;11.59;71.20;101560.09;5070236;28;20027;-64
2022/06/21 03:58:58;;;;;;;15.85;8.50;;;;;;;11.59;70.95;101552.25;5058883;28;20289;-64
2022/06/21 04:01:26;;;;;;;11.70;8.23;;;;;;;11.58;71.58;101558.31;5070120;28;20074;-65
2022/06/21 04:04:01;;;;;;;14.98;8.80;;;;;;;11.53;71.95;101565.13;5069040;28;20467;-65
2022/06/21 04:06:45;;;;;;;14.95;8.57;;;;;;;11.59;71.21;101573.16;5067556;28;20480;-65
2022/06/21 04:09:13;;;;;;;14.05;9.18;;;;;;;11.54;72.47;101563.41;5070323;28;20036;-65
2022/06/21 04:12:25;;;;;;;14.20;9.38;;;;;;;11.57;71.49;101573.94;5067909;28;20403;-65
2022/06/21 04:14:56;;;;;;;13.48;8.45;;;;;;;11.55;71.91;101571.28;5066062;28;20146;-65
2022/06/21 04:17:29;;;;;;;14.23;8.90;;;;;;;11.57;72.30;101569.63;5063522;28;20025;-65
2022/06/21 04:20:01;;;;;;;13.43;9.55;;;;;;;11.58;72.99;101573.09;5067203;28;20418;-65
2022/06/21 04:22:58;;;;;;;14.65;9.95;;;;;;;11.59;72.16;101569.66;5070126;28;20335;-64
2022/06/21 04:25:46;;;;;;;15.50;9.60;;;;;;;11.59;71.78;101562.72;5069787;28;20029;-64
2022/06/21 04:28:18;;;;;;;17.77;10.65;;;;;;;11.60;72.68;101566.19;5059487;28;20021;-65
2022/06/21 04:30:50;;;;;;;16.55;11.13;;;;;;;11.59;73.06;101560.09;5069700;28;20056;-65
2022/06/21 04:33:31;;;;;;;16.98;10.60;;;;;;;11.60;72.14;101564.50;5064413;28;20527;-64
2022/06/21 04:36:11;;;;;;;14.90;9.82;;;;;;;11.60;72.29;101559.28;5063549;28;20056;-64
2022/06/21 04:38:47;;;;;;;18.38;10.88;;;;;;;11.61;72.95;101555.78;5070115;28;20036;-65
2022/06/21 04:41:25;;;;;;;17.42;10.90;;;;;;;11.61;73.11;101547.97;5068444;28;20553;-64
2022/06/21 04:44:00;;;;;;;17.13;11.10;;;;;;;11.63;73.75;101543.69;5048155;28;20036;-65
2022/06/21 04:46:35;;;;;;;18.70;11.75;;;;;;;11.64;73.41;101542.88;5068264;28;20060;-65
2022/06/21 04:49:12;;;;;;;18.73;12.15;;;;;;;11.65;73.81;101542.00;5069595;28;20044;-65
2022/06/21 04:51:42;;;;;;;18.80;11.98;;;;;;;11.68;74.17;101536.00;5069701;28;20028;-65
2022/06/21 04:54:25;;;;;;;18.23;11.98;;;;;;;11.69;74.80;101539.47;5069557;28;20245;-64
2022/06/21 04:57:09;;;;;;;19.23;12.15;;;;;;;11.71;75.35;101545.66;5065590;28;20036;-64
2022/06/21 04:59:42;;;;;;;18.52;12.35;;;;;;;11.74;75.31;101548.34;5067645;28;20024;-64
2022/06/21 05:02:18;;;;;;;21.55;12.10;;;;;;;11.76;75.42;101534.50;5069419;28;20024;-64
2022/06/21 05:04:46;;;;;;;18.23;12.07;;;;;;;11.81;76.16;101542.47;5069962;28;20039;-64
2022/06/21 05:07:16;;;;;;;18.92;12.90;;;;;;;11.84;76.39;101539.94;5059570;28;20017;-66
2022/06/21 05:09:42;;;;;;;18.52;12.27;;;;;;;11.88;76.16;101544.44;5073782;28;20020;-65
2022/06/21 05:12:22;;;;;;;19.85;12.43;;;;;;;11.90;75.94;101550.56;5064688;28;20033;-65
2022/06/21 05:14:51;;;;;;;23.10;12.77;;;;;;;11.94;77.08;101552.47;5048470;28;20029;-65
2022/06/21 05:17:18;;;;;;;22.98;12.93;;;;;;;11.95;78.05;101556.88;5073188;28;20491;-60
2022/06/21 05:19:48;;;;;;;21.55;12.52;;;;;;;11.97;77.37;101542.09;5073354;28;20107;-59
2022/06/21 05:22:21;;;;;;;19.77;12.50;;;;;;;12.02;77.51;101539.66;5073301;28;20408;-59
2022/06/21 05:24:47;;;;;;;19.45;12.70;;;;;;;12.06;77.71;101527.56;5073187;28;20085;-59
2022/06/21 05:27:20;;;;;;;20.80;13.02;;;;;;;12.09;78.08;101525.03;5062600;28;20467;-59
2022/06/21 05:30:03;;;;;;;20.52;12.80;;;;;;;12.12;77.27;101527.72;5073146;28;20552;-60
2022/06/21 05:32:38;;;;;;;21.00;12.88;;;;;;;12.16;78.16;101526.97;5073179;28;20016;-60
2022/06/21 05:35:17;;;;;;;22.25;13.32;;;;;;;12.20;77.90;101528.81;5061593;28;20036;-59
2022/06/21 05:37:50;;;;;;;23.73;13.25;;;;;;;12.24;78.42;101541.13;5072726;28;20031;-60
2022/06/21 05:40:54;;;;;;;20.98;12.57;;;;;;;12.29;77.64;101549.97;5072654;28;20035;-59
2022/06/21 05:43:27;;;;;;;23.85;12.23;;;;;;;12.33;78.13;101554.44;5047523;28;20098;-59
2022/06/21 05:45:58;;;;;;;21.42;12.27;;;;;;;12.39;78.19;101552.88;5072805;28;20229;-58
2022/06/21 05:48:27;;;;;;;18.98;12.48;;;;;;;12.41;78.91;101544.22;5058046;28;20048;-64
2022/06/21 05:50:52;;;;;;;20.17;12.45;;;;;;;12.45;78.00;101542.56;5058809;28;20044;-66
2022/06/21 05:53:39;;;;;;;19.40;12.13;;;;;;;12.52;77.61;101548.00;5072726;28;20450;-64
2022/06/21 05:56:09;;;;;;;21.23;11.60;;;;;;;12.60;78.12;101557.78;5072558;28;20074;-65
2022/06/21 05:58:44;;;;;;;21.50;11.68;;;;;;;12.68;78.17;101577.16;5072917;28;20029;-64
2022/06/21 06:01:17;;;;;;;22.58;11.82;;;;;;;12.78;78.54;101573.06;5072466;28;20028;-64
2022/06/21 06:03:47;;;;;;;19.65;11.25;;;;;;;12.85;78.62;101565.41;5057568;28;20454;-63
2022/06/21 06:06:18;;;;;;;20.73;11.35;;;;;;;12.94;78.54;101575.22;5070548;28;20039;-64
2022/06/21 06:08:51;;;;;;;17.90;10.85;;;;;;;13.01;77.82;101571.06;5069852;28;20302;-64
2022/06/21 06:11:57;;;;;;;18.33;11.02;;;;;;;13.09;77.09;101571.22;5070931;28;20040;-64
2022/06/21 06:14:13;;;;;;;20.08;10.23;;;;;;;13.16;77.25;101581.88;5072294;28;20033;-65
2022/06/21 06:16:42;;;;;;;14.52;7.72;;;;;;;13.26;75.85;101585.63;5072431;28;20028;-65
2022/06/21 06:19:21;;;;;;;14.90;8.40;;;;;;;13.33;75.86;101584.03;5061719;28;20040;-65
2022/06/21 06:22:09;;;;;;;17.52;8.15;;;;;;;13.43;75.81;101579.97;5067752;28;20040;-65
2022/06/21 06:25:03;;;;;;;14.20;8.23;;;;;;;13.55;74.95;101582.84;5072158;28;20032;-66
2022/06/21 06:27:45;;;;;;;12.75;7.97;;;;;;;13.66;74.76;101583.13;5068709;28;20275;-65
2022/06/21 06:30:15;;;;;;;16.02;8.65;;;;;;;13.74;74.32;101606.00;5071819;28;20028;-65
2022/06/21 06:32:50;;;;;;;16.88;8.57;;;;;;;13.81;74.08;101601.78;5071931;28;20029;-64
2022/06/21 06:35:20;;;;;;;16.48;8.52;;;;;;;13.91;73.99;101602.88;5055932;28;20082;-64
2022/06/21 06:37:46;;;;;;;15.80;7.72;;;;;;;14.01;73.44;101594.34;5066377;28;20035;-65
2022/06/21 06:40:24;;;;;;;15.43;8.45;;;;;;;14.08;73.44;101598.88;5070001;28;20059;-65
2022/06/21 06:42:57;;;;;;;18.48;7.70;;;;;;;14.18;73.62;101593.81;5071862;28;20047;-65
2022/06/21 06:45:28;;;;;;;16.48;7.53;;;;;;;14.24;72.96;101596.59;5071318;28;20031;-65
2022/06/21 06:48:02;;;;;;;14.95;7.63;;;;;;;14.30;72.80;101601.94;5058476;28;20060;-65
2022/06/21 06:50:35;;;;;;;16.05;7.78;;;;;;;14.40;72.46;101603.91;5046741;28;20032;-65
2022/06/21 06:53:08;;;;;;;16.77;8.00;;;;;;;14.48;72.44;101596.16;5071485;28;20024;-65
2022/06/21 06:55:44;;;;;;;16.13;7.88;;;;;;;14.56;72.10;101596.34;5064295;28;20025;-65
2022/06/21 06:58:31;;;;;;;16.33;8.43;;;;;;;14.64;71.11;101594.75;5067204;28;20043;-65
2022/06/21 07:01:15;;;;;;;15.32;7.88;;;;;;;14.71;70.98;101598.41;5070078;28;20476;-64
2022/06/21 07:03:51;;;;;;;17.00;8.25;;;;;;;14.79;71.63;101596.81;5060664;28;20103;-65
2022/06/21 07:06:23;;;;;;;17.60;8.48;;;;;;;14.85;72.20;101603.91;5050447;28;20029;-65
2022/06/21 07:08:54;;;;;;;19.05;8.10;;;;;;;14.91;70.47;101596.13;5052939;28;20025;-65
2022/06/21 07:11:30;;;;;;;19.30;8.68;;;;;;;15.00;70.49;101591.03;5054484;28;20043;-65
2022/06/21 07:13:58;;;;;;;16.00;7.65;;;;;;;15.06;69.27;101585.91;5052826;28;20017;-65
2022/06/21 07:16:25;;;;;;;18.38;7.50;;;;;;;15.14;69.44;101599.16;5055321;28;20032;-64
2022/06/21 07:18:54;;;;;;;19.50;7.80;;;;;;;15.19;69.31;101601.84;5050111;28;20473;-64
2022/06/21 07:21:22;;;;;;;14.65;8.13;;;;;;;15.26;69.33;101590.59;5056805;28;20040;-65
2022/06/21 07:23:49;;;;;;;17.17;7.95;;;;;;;15.30;70.82;101582.78;5071066;28;20024;-64
2022/06/21 07:26:21;;;;;;;16.30;7.90;;;;;;;15.35;68.64;101577.63;5070785;28;20032;-65
2022/06/21 07:28:55;;;;;;;14.57;7.75;;;;;;;15.43;69.10;101568.13;5070974;28;20038;-64
2022/06/21 07:31:28;;;;;;;14.98;8.23;;;;;;;15.50;69.35;101573.44;5070203;28;20048;-64
2022/06/21 07:34:03;;;;;;;17.05;7.90;;;;;;;15.57;69.85;101580.56;5057864;28;20049;-64
2022/06/21 07:36:33;;;;;;;18.67;10.13;;;;;;;15.61;66.75;101580.66;5070179;28;20086;-64
2022/06/21 07:39:09;;;;;;;20.20;10.10;;;;;;;15.66;67.00;101575.47;5070773;28;20491;-65
2022/06/21 07:41:47;;;;;;;22.50;9.77;;;;;;;15.71;67.08;101588.66;5051778;28;20087;-64
2022/06/21 07:44:39;;;;;;;18.30;9.50;;;;;;;15.75;67.53;101585.22;5064555;28;20462;-64
2022/06/21 07:47:33;;;;;;;21.55;10.07;;;;;;;15.80;67.50;101586.19;5070508;28;20408;-64
2022/06/21 07:50:22;;;;;;;19.20;9.13;;;;;;;15.88;66.61;101586.31;5070089;28;20068;-64
2022/06/21 07:52:59;;;;;;;20.90;9.95;;;;;;;15.90;65.81;101585.47;5064049;28;20044;-64
2022/06/21 07:55:35;;;;;;;17.95;10.13;;;;;;;15.95;66.32;101585.53;5049614;28;20419;-65
2022/06/21 07:58:10;;;;;;;18.25;8.98;;;;;;;15.99;66.01;101575.06;5044462;28;20024;-64
2022/06/21 08:09:40;;;;;;;19.45;10.00;;;;;;;16.30;65.48;101553.53;5055158;28;20390;-64
2022/06/21 08:12:10;;;;;;;16.20;9.77;;;;;;;16.39;65.73;101558.88;5043441;28;20139;-64
2022/06/21 08:14:35;;;;;;;18.45;9.38;;;;;;;16.43;64.72;101554.53;5066807;28;20314;-64
2022/06/21 08:17:04;;;;;;;21.52;8.80;;;;;;;16.50;64.40;101566.91;5053512;28;20025;-65
2022/06/21 08:20:15;;;;;;;18.45;8.93;;;;;;;16.55;64.62;101559.91;5051642;28;20032;-65
2022/06/21 08:22:45;;;;;;;16.75;8.85;;;;;;;16.61;63.95;101556.47;5048490;28;20064;-65
2022/06/21 08:25:32;;;;;;;19.23;9.35;;;;;;;16.67;65.03;101553.94;5049566;28;20039;-66
2022/06/21 08:28:05;;;;;;;18.67;9.15;;;;;;;16.71;63.24;101547.81;5048283;28;20035;-65
2022/06/21 08:30:38;;;;;;;19.75;9.85;;;;;;;16.73;61.92;101543.44;5050427;28;20500;-66
2022/06/21 08:33:08;;;;;;;16.67;8.40;;;;;;;16.73;63.24;101543.44;5046897;28;20110;-66
2022/06/21 08:35:42;;;;;;;17.67;9.43;;;;;;;16.75;62.41;101532.94;5058171;28;20029;-64
2022/06/21 08:38:20;;;;;;;20.95;8.75;;;;;;;16.78;62.91;101520.66;5048862;28;20021;-65
2022/06/21 08:41:07;;;;;;;20.38;9.95;;;;;;;16.84;62.73;101530.38;5046771;28;20066;-65
2022/06/21 08:43:59;;;;;;;18.80;9.00;;;;;;;16.90;62.95;101526.94;5050335;28;20070;-65
2022/06/21 08:46:50;;;;;;;19.95;9.27;;;;;;;16.94;61.86;101531.38;5064993;28;20024;-65
2022/06/21 08:49:39;;;;;;;15.80;8.68;;;;;;;16.96;62.91;101517.38;5064249;28;20109;-65
2022/06/21 08:52:26;;;;;;;19.25;9.18;;;;;;;17.03;65.19;101507.75;5068114;28;20597;-66
2022/06/21 08:55:30;;;;;;;16.63;9.80;;;;;;;17.08;62.92;101503.41;5056357;28;20021;-67
2022/06/21 08:58:17;;;;;;;15.43;9.68;;;;;;;17.14;64.26;101487.63;5050245;28;20053;-66
2022/06/21 09:00:51;;;;;;;17.92;10.43;;;;;;;17.17;63.74;101476.25;5047941;28;20032;-65
2022/06/21 09:03:31;;;;;;;18.38;10.32;;;;;;;17.18;63.03;101488.56;5060749;28;20020;-66
2022/06/21 09:06:25;;;;;;;20.25;11.60;;;;;;;17.19;62.65;101496.47;5046000;28;20090;-66
2022/06/21 09:09:09;;;;;;;22.23;11.82;;;;;;;17.21;61.13;101492.06;5073316;28;20695;-65
2022/06/21 09:12:16;;;;;;;20.85;10.88;;;;;;;17.23;62.16;101486.81;5073563;28;20038;-66
2022/06/21 09:14:55;;;;;;;17.10;10.45;;;;;;;17.27;60.00;101490.38;5060347;28;20097;-66
2022/06/21 09:17:25;;;;;;;;;;;;;;;17.36;61.44;101487.78;5073807;28;20526;-65
2022/06/21 09:20:03;;;;;;;14.23;7.95;;;;;;;17.38;61.87;101475.50;5058787;28;19904;-66
2022/06/21 09:22:51;;;;;;;15.18;8.63;;;;;;;17.48;61.30;101461.50;5065322;28;20024;-66
2022/06/21 09:25:35;;;;;;;16.17;8.27;;;;;;;17.58;62.74;101466.81;5073105;28;20039;-65
2022/06/21 09:28:23;;;;;;;16.10;8.15;;;;;;;17.68;59.95;101465.97;5073061;28;20119;-66
2022/06/21 09:31:05;;;;;;;15.13;8.48;;;;;;;17.82;60.14;101459.00;5046198;28;20087;-65
2022/06/21 09:33:43;;;;;;;15.48;8.32;;;;;;;17.95;59.77;101448.53;5048167;28;20032;-65
2022/06/21 09:36:28;;;;;;;12.25;8.27;;;;;;;18.03;58.47;101446.78;5041714;28;20029;-66
2022/06/21 09:39:23;;;;;;;18.67;8.40;;;;;;;18.13;58.04;101445.06;5052857;28;20045;-65
2022/06/21 09:42:00;;;;;;;16.90;8.93;;;;;;;18.21;57.93;101440.69;5052027;28;20032;-65
2022/06/21 09:44:35;;;;;;;15.85;8.05;;;;;;;18.31;57.94;101449.50;5057691;28;20020;-66
2022/06/21 09:47:21;;;;;;;16.55;8.50;;;;;;;18.39;57.58;101460.91;5054419;28;20514;-66
2022/06/21 09:50:12;;;;;;;15.82;8.23;;;;;;;18.52;58.55;101465.31;5057931;28;20036;-66
2022/06/21 09:52:49;;;;;;;13.98;7.57;;;;;;;18.66;58.08;101461.84;5071151;28;20032;-65
2022/06/21 09:55:33;;;;;;;12.38;7.03;;;;;;;18.76;57.42;101450.38;5072269;28;20035;-65
2022/06/21 09:58:16;;;;;;;17.15;8.43;;;;;;;18.87;56.50;101446.00;5060982;28;20070;-66
2022/06/21 10:00:51;;;;;;;16.25;8.43;;;;;;;18.89;56.77;101433.69;5040547;28;20029;-65
2022/06/21 10:03:43;;;;;;;15.60;8.65;;;;;;;18.92;56.56;101438.94;5054310;28;20024;-64
2022/06/21 10:07:10;;;;;;;14.10;8.52;;;;;;;18.97;56.97;101440.72;5056692;28;20024;-66
2022/06/21 10:10:07;;;;;;;16.08;8.65;;;;;;;18.91;55.15;101447.75;4980139;28;20050;-66
2022/06/21 10:12:56;;;;;;;16.92;8.20;;;;;;;18.94;57.93;101460.97;4990304;28;20113;-65
2022/06/21 10:15:43;;;;;;;17.35;9.05;;;;;;;18.99;56.11;101457.41;5051721;28;20041;-65
2022/06/21 10:18:35;;;;;;;15.68;9.20;;;;;;;19.00;55.99;101451.25;5071720;28;20047;-65
2022/06/21 10:21:06;;;;;;;16.80;8.93;;;;;;;19.05;57.78;101449.50;5072130;28;20107;-65
2022/06/21 10:24:00;;;;;;;18.60;9.45;;;;;;;19.08;56.35;101445.09;5071908;28;20020;-65
2022/06/21 10:26:48;;;;;;;16.10;8.25;;;;;;;19.06;55.45;101452.16;5071891;28;20115;-66
2022/06/21 10:29:49;;;;;;;13.97;8.07;;;;;;;19.14;57.45;101460.03;5062497;28;20029;-65
2022/06/21 10:32:30;;;;;;;12.77;8.20;;;;;;;19.19;58.43;101465.31;5052004;28;20043;-65
2022/06/21 10:35:10;;;;;;;17.92;8.98;;;;;;;19.24;55.39;101456.50;5060470;28;20040;-65
2022/06/21 10:38:02;;;;;;;15.35;8.95;;;;;;;19.26;54.75;101449.47;5071927;28;20103;-65
2022/06/21 10:40:33;;;;;;;15.90;9.10;;;;;;;19.31;54.20;101452.09;5070652;28;20059;-65
2022/06/21 10:43:37;;;;;;;15.90;8.85;;;;;;;19.34;54.15;101461.78;5071881;28;20077;-65
2022/06/21 10:46:19;;;;;;;16.63;9.18;;;;;;;19.38;56.73;101456.47;5029012;28;20116;-65
2022/06/21 10:48:56;;;;;;;16.15;8.77;;;;;;;19.44;56.54;101455.56;5028891;28;20041;-65
2022/06/21 10:51:36;;;;;;;15.52;9.15;;;;;;;19.49;57.01;101451.13;5051897;28;20044;-67
2022/06/21 10:54:24;;;;;;;16.98;9.52;;;;;;;19.53;56.20;101452.88;5053022;28;20108;-65
2022/06/21 10:57:27;;;;;;;16.47;9.33;;;;;;;19.57;55.82;101452.00;5045006;28;20045;-64
2022/06/21 11:03:03;;;;;;;16.60;9.35;;;;;;;19.63;55.70;101457.25;5043182;28;20035;-64
2022/06/21 11:05:46;;;;;;;18.17;10.05;;;;;;;19.66;54.26;101459.00;5066503;28;20028;-65
2022/06/21 11:08:46;;;;;;;15.23;9.82;;;;;;;19.74;55.83;101461.59;5068510;28;20139;-64
2022/06/21 11:11:20;;;;;;;17.25;8.95;;;;;;;19.75;54.20;101471.31;5068911;28;20020;-64
2022/06/21 11:14:04;;;;;;;15.43;9.00;;;;;;;19.77;55.56;101467.78;5061463;28;20073;-64
2022/06/21 11:16:37;;;;;;;15.38;9.88;;;;;;;19.78;53.19;101460.72;5065685;28;20037;-65
2022/06/21 11:19:30;;;;;;;22.02;10.40;;;;;;;19.80;54.21;101459.84;5057473;28;20025;-64
2022/06/21 11:22:14;;;;;;;21.23;9.65;;;;;;;19.82;55.97;101453.69;5055176;28;20108;-64
2022/06/21 11:24:57;;;;;;;17.70;10.10;;;;;;;19.84;56.10;101458.06;5056178;28;20033;-64
2022/06/21 11:27:45;;;;;;;20.08;10.32;;;;;;;19.85;55.63;101457.19;5068287;28;20119;-60
2022/06/21 11:30:41;;;;;;;13.98;10.20;;;;;;;19.88;55.55;101458.94;5048193;28;20035;-60
2022/06/21 11:33:18;;;;;;;13.77;9.63;;;;;;;19.89;54.05;101455.41;5057988;28;20032;-59
2022/06/21 11:35:49;;;;;;;15.77;10.18;;;;;;;19.91;55.00;101450.97;5053271;28;20274;-59
2022/06/21 11:38:23;;;;;;;14.48;9.45;;;;;;;19.91;53.25;101443.03;5053047;28;20036;-59
2022/06/21 11:41:09;;;;;;;25.17;9.10;;;;;;;19.93;54.50;101458.03;5054111;28;20035;-59
2022/06/21 11:43:53;;;;;;;13.63;8.80;;;;;;;19.94;54.13;101448.31;5053319;28;20025;-60
2022/06/21 11:46:35;;;;;;;14.05;8.02;;;;;;;19.97;55.90;101443.91;5048889;28;20025;-59
2022/06/21 11:49:11;;;;;;;14.32;8.10;;;;;;;20.00;54.36;101431.53;5048123;28;20052;-60
2022/06/21 11:52:11;;;;;;;11.48;7.78;;;;;;;20.04;55.17;101439.44;5050184;28;20132;-60
2022/06/21 11:54:50;;;;;;;14.68;8.18;;;;;;;20.05;53.45;101438.56;5037587;28;20061;-59
2022/06/21 11:57:30;;;;;;;13.48;8.00;;;;;;;20.08;53.87;101435.03;5051741;28;20059;-64
2022/06/21 12:00:05;;;;;;;15.40;8.02;;;;;;;20.12;54.59;101431.47;5052510;28;20099;-65
2022/06/21 12:02:47;;;;;;;18.23;9.30;;;;;;;20.17;54.50;101429.66;5061651;28;20035;-64
2022/06/21 12:05:30;;;;;;;14.95;8.70;;;;;;;20.22;54.23;101433.16;5043970;28;20392;-64
2022/06/21 12:08:05;;;;;;;15.85;8.27;;;;;;;20.26;53.78;101432.25;5039113;28;20175;-64
2022/06/21 12:10:42;;;;;;;12.50;7.47;;;;;;;20.28;53.20;101433.09;5044476;28;20021;-65
2022/06/21 12:13:27;;;;;;;13.88;7.72;;;;;;;20.28;49.92;101432.25;5048612;28;20057;-65
2022/06/21 12:16:21;;;;;;;15.48;7.93;;;;;;;20.24;50.98;101426.06;5047818;28;20127;-65